createdAt,value
2022-09-26T00:03:54.744Z,9.27
2022-09-26T00:07:55.964Z,11.00
2022-09-26T00:11:57.326Z,9.03
2022-09-26T00:15:58.595Z,9.80
2022-09-26T00:20:00.076Z,10.70
2022-09-26T00:24:01.823Z,8.00
2022-09-26T00:28:02.999Z,9.43
2022-09-26T00:32:04.087Z,11.67
2022-09-26T00:36:06.376Z,11.47
2022-09-26T00:40:08.477Z,12.77
2022-09-26T00:44:33.078Z,8.50
2022-09-26T00:48:36.577Z,11.37
2022-09-26T00:52:41.597Z,11.10
2022-09-26T00:56:46.281Z,12.00
2022-09-26T01:00:49.300Z,9.50
2022-09-26T01:04:51.666Z,10.17
2022-09-26T01:08:59.629Z,11.50
2022-09-26T01:13:01.798Z,11.90
2022-09-26T01:17:03.630Z,7.73
2022-09-26T01:21:31.371Z,10.77
2022-09-26T01:26:09.718Z,8.10
2022-09-26T01:30:17.687Z,8.67
2022-09-26T01:34:25.657Z,10.90
2022-09-26T01:38:48.449Z,9.27
2022-09-26T01:43:11.755Z,8.23
2022-09-26T01:47:16.654Z,9.13
2022-09-26T01:51:27.615Z,10.83
2022-09-26T01:55:33.907Z,9.83
2022-09-26T01:59:44.917Z,10.70
2022-09-26T02:03:49.988Z,17.30
2022-09-26T02:08:00.688Z,15.77
2022-09-26T02:12:05.381Z,14.90
2022-09-26T02:16:10.162Z,13.07
2022-09-26T02:20:18.167Z,9.60
2022-09-26T02:24:19.665Z,10.33
2022-09-26T02:28:21.334Z,12.17
2022-09-26T02:32:26.320Z,11.93
2022-09-26T02:36:28.200Z,10.50
2022-09-26T02:40:36.233Z,11.47
2022-09-26T02:45:00.363Z,13.00
2022-09-26T02:49:10.980Z,10.90
2022-09-26T02:53:22.023Z,13.50
2022-09-26T02:57:39.352Z,10.50
2022-09-26T03:01:51.762Z,12.13
2022-09-26T03:05:56.082Z,11.27
2022-09-26T03:10:00.529Z,13.43
2022-09-26T03:14:03.121Z,10.57
2022-09-26T03:18:08.040Z,10.70
2022-09-26T03:22:09.765Z,13.23
2022-09-26T03:26:13.277Z,12.97
2022-09-26T03:30:16.364Z,13.30
2022-09-26T03:34:17.527Z,11.40
2022-09-26T03:38:18.701Z,11.17
2022-09-26T03:42:19.887Z,11.27
2022-09-26T03:46:20.955Z,17.00
2022-09-26T03:50:22.450Z,11.73
2022-09-26T03:54:23.637Z,11.43
2022-09-26T03:58:24.834Z,15.23
2022-09-26T04:02:26.148Z,11.60
2022-09-26T04:06:28.120Z,11.10
2022-09-26T04:10:29.372Z,12.60
2022-09-26T04:14:30.896Z,12.50
2022-09-26T04:18:32.873Z,13.03
2022-09-26T04:22:34.075Z,13.70
2022-09-26T04:26:35.374Z,10.83
2022-09-26T04:30:36.896Z,11.10
2022-09-26T04:34:39.559Z,11.87
2022-09-26T04:38:40.771Z,12.03
2022-09-26T04:42:42.007Z,14.87
2022-09-26T04:46:43.856Z,12.90
2022-09-26T04:50:45.792Z,13.37
2022-09-26T04:54:46.854Z,15.37
2022-09-26T04:58:48.761Z,14.23
2022-09-26T05:02:49.947Z,16.20
2022-09-26T05:06:51.120Z,14.63
2022-09-26T05:10:54.496Z,11.93
2022-09-26T05:14:55.948Z,12.83
2022-09-26T05:18:57.276Z,16.93
2022-09-26T05:22:58.479Z,12.60
2022-09-26T05:26:59.755Z,14.57
2022-09-26T05:31:01.345Z,11.03
2022-09-26T05:35:04.702Z,14.50
2022-09-26T05:39:08.082Z,11.10
2022-09-26T05:43:10.934Z,11.83
2022-09-26T05:47:12.412Z,11.47
2022-09-26T05:51:15.952Z,13.93
2022-09-26T05:55:17.133Z,16.00
2022-09-26T05:59:18.351Z,14.57
2022-09-26T06:03:19.725Z,10.50
2022-09-26T06:07:20.992Z,14.33
2022-09-26T06:11:24.227Z,11.60
2022-09-26T06:15:25.402Z,13.40
2022-09-26T06:19:26.588Z,11.30
2022-09-26T06:23:27.976Z,12.97
2022-09-26T06:27:29.160Z,14.07
2022-09-26T06:31:30.478Z,11.47
2022-09-26T06:35:32.608Z,10.87
2022-09-26T06:39:36.561Z,10.73
2022-09-26T06:43:39.045Z,13.57
2022-09-26T06:47:40.312Z,12.13
2022-09-26T06:51:41.889Z,14.23
2022-09-26T06:55:43.265Z,14.07
2022-09-26T06:59:44.503Z,12.83
2022-09-26T07:03:46.229Z,10.80
2022-09-26T07:07:48.391Z,10.47
2022-09-26T07:12:13.999Z,12.13
2022-09-26T07:15:56.683Z,8.53
2022-09-26T07:19:57.917Z,7.80
2022-09-26T07:23:59.088Z,10.53
2022-09-26T07:28:00.989Z,11.13
2022-09-26T07:32:02.222Z,10.10
2022-09-26T07:36:05.679Z,11.83
2022-09-26T07:40:07.316Z,8.03
2022-09-26T07:48:29.954Z,7.70
2022-09-26T07:52:31.132Z,7.53
2022-09-26T07:56:33.739Z,7.40
2022-09-26T08:00:35.694Z,6.50
2022-09-26T08:04:36.857Z,8.37
2022-09-26T08:08:38.136Z,5.63
2022-09-26T08:12:39.334Z,6.93
2022-09-26T08:16:41.088Z,5.77
2022-09-26T08:20:44.197Z,8.50
2022-09-26T08:24:47.302Z,6.27
2022-09-26T08:28:48.770Z,5.37
2022-09-26T08:32:53.979Z,6.07
2022-09-26T08:36:55.256Z,6.43
2022-09-26T08:41:16.914Z,6.23
2022-09-26T08:45:57.140Z,6.80
2022-09-26T08:50:20.305Z,6.07
2022-09-26T08:54:33.877Z,6.63
2022-09-26T08:58:41.863Z,7.73
2022-09-26T09:02:52.876Z,5.87
2022-09-26T09:07:00.224Z,6.67
2022-09-26T09:11:11.023Z,6.13
2022-09-26T09:15:32.621Z,7.50
2022-09-26T09:20:02.722Z,6.73
2022-09-26T09:24:27.563Z,6.77
2022-09-26T09:28:56.105Z,6.43
2022-09-26T09:33:06.761Z,7.60
2022-09-26T09:37:24.922Z,6.00
2022-09-26T09:41:38.001Z,4.60
2022-09-26T09:45:45.166Z,6.60
2022-09-26T09:49:53.267Z,8.10
2022-09-26T09:54:16.686Z,8.63
2022-09-26T09:58:44.642Z,7.40
2022-09-26T10:03:12.738Z,9.50
2022-09-26T10:07:17.182Z,5.10
2022-09-26T10:11:52.346Z,4.30
2022-09-26T10:16:00.499Z,4.73
2022-09-26T10:20:02.313Z,7.23
2022-09-26T10:24:05.120Z,5.13
2022-09-26T10:28:08.707Z,5.90
2022-09-26T10:32:11.387Z,6.17
2022-09-26T10:36:24.625Z,7.30
2022-09-26T10:40:50.781Z,6.43
2022-09-26T10:45:02.466Z,4.60
2022-09-26T10:49:06.158Z,3.63
2022-09-26T10:53:14.226Z,5.13
2022-09-26T10:57:35.484Z,4.13
2022-09-26T11:01:49.825Z,5.80
2022-09-26T11:05:57.235Z,4.33
2022-09-26T11:10:01.615Z,6.10
2022-09-26T11:14:07.750Z,4.90
2022-09-26T11:18:12.672Z,5.03
2022-09-26T11:22:25.682Z,6.27
2022-09-26T11:26:41.849Z,3.20
2022-09-26T11:30:49.140Z,4.33
2022-09-26T11:34:52.322Z,3.60
2022-09-26T11:38:55.870Z,6.03
2022-09-26T11:43:17.499Z,3.60
2022-09-26T11:47:45.995Z,7.33
2022-09-26T11:52:07.545Z,6.80
2022-09-26T11:56:35.279Z,4.03
2022-09-26T12:00:53.880Z,4.53
2022-09-26T12:05:01.856Z,5.83
2022-09-26T12:09:30.597Z,3.10
2022-09-26T12:13:41.695Z,6.03
2022-09-26T12:18:06.636Z,6.07
2022-09-26T12:22:29.291Z,4.60
2022-09-26T12:26:34.387Z,5.43
2022-09-26T12:31:00.619Z,3.30
2022-09-26T12:35:22.290Z,3.50
2022-09-26T12:39:44.939Z,3.50
2022-09-26T12:43:58.531Z,4.20
2022-09-26T12:48:18.947Z,6.30
2022-09-26T12:52:27.630Z,4.83
2022-09-26T12:56:41.861Z,4.80
2022-09-26T13:00:49.864Z,3.53
2022-09-26T13:05:03.347Z,3.60
2022-09-26T13:09:23.490Z,3.93
2022-09-26T13:13:29.397Z,4.00
2022-09-26T13:17:38.055Z,3.50
2022-09-26T13:21:54.557Z,3.67
2022-09-26T13:25:59.534Z,4.60
2022-09-26T13:30:04.422Z,3.33
2022-09-26T13:34:15.399Z,5.60
2022-09-26T13:38:38.427Z,3.20
2022-09-26T13:42:43.471Z,3.43
2022-09-26T13:47:18.858Z,4.00
2022-09-26T13:51:26.850Z,3.00
2022-09-26T13:55:28.459Z,8.33
2022-09-26T13:59:35.755Z,3.57
2022-09-26T14:03:38.742Z,3.73
2022-09-26T14:08:02.293Z,3.83
2022-09-26T14:12:22.156Z,5.47
2022-09-26T14:16:30.150Z,5.57
2022-09-26T14:20:35.173Z,4.33
2022-09-26T14:24:40.844Z,4.10
2022-09-26T14:28:48.463Z,3.73
2022-09-26T14:32:51.460Z,4.23
2022-09-26T14:36:55.080Z,3.67
2022-09-26T14:40:58.346Z,4.23
2022-09-26T14:45:03.048Z,6.33
2022-09-26T14:49:06.530Z,3.97
2022-09-26T14:53:14.533Z,3.37
2022-09-26T14:57:22.480Z,2.80
2022-09-26T15:01:33.571Z,5.27
2022-09-26T15:05:34.984Z,2.90
2022-09-26T15:09:57.209Z,4.67
2022-09-26T15:14:02.179Z,3.00
2022-09-26T15:18:29.925Z,2.80
2022-09-26T15:22:31.299Z,2.97
2022-09-26T15:26:36.440Z,4.13
2022-09-26T15:30:39.463Z,4.33
2022-09-26T15:34:40.885Z,2.93
2022-09-26T15:38:47.032Z,3.80
2022-09-26T15:43:00.037Z,3.90
2022-09-26T15:47:08.049Z,2.97
2022-09-26T15:51:16.007Z,2.73
2022-09-26T15:55:20.835Z,4.17
2022-09-26T15:59:31.681Z,3.97
2022-09-26T16:03:36.648Z,3.77
2022-09-26T16:07:38.452Z,3.50
2022-09-26T16:11:49.457Z,4.67
2022-09-26T16:16:15.153Z,5.87
2022-09-26T16:20:20.205Z,4.23
2022-09-26T16:24:28.174Z,2.83
2022-09-26T16:28:41.761Z,3.23
2022-09-26T16:32:43.273Z,4.53
2022-09-26T16:36:45.146Z,4.43
2022-09-26T16:40:51.761Z,4.53
2022-09-26T16:44:56.904Z,3.37
2022-09-26T16:48:59.997Z,5.13
2022-09-26T16:53:05.658Z,14.90
2022-09-26T16:57:10.658Z,4.33
2022-09-26T17:01:30.268Z,4.03
2022-09-26T17:05:31.400Z,5.40
2022-09-26T17:09:33.425Z,6.53
2022-09-26T17:13:35.356Z,3.10
2022-09-26T17:17:37.658Z,2.80
2022-09-26T17:21:39.078Z,5.10
2022-09-26T17:25:41.573Z,3.70
2022-09-26T17:29:46.652Z,3.73
2022-09-26T17:33:51.595Z,4.00
2022-09-26T17:37:53.872Z,6.70
2022-09-26T17:41:57.469Z,3.70
2022-09-26T17:46:00.247Z,4.27
2022-09-26T17:50:01.509Z,5.60
2022-09-26T17:54:04.928Z,5.03
2022-09-26T17:58:10.055Z,4.07
2022-09-26T18:02:15.451Z,3.07
2022-09-26T18:06:19.349Z,3.30
2022-09-26T18:10:24.221Z,4.80
2022-09-26T18:14:28.912Z,4.43
2022-09-26T18:18:34.294Z,5.30
2022-09-26T18:22:35.872Z,4.60
2022-09-26T18:26:46.034Z,5.63
2022-09-26T18:30:59.673Z,7.07
2022-09-26T18:35:01.458Z,5.43
2022-09-26T18:39:03.111Z,5.00
2022-09-26T18:43:07.170Z,8.80
2022-09-26T18:47:16.984Z,7.83
2022-09-26T18:51:38.969Z,6.03
2022-09-26T18:55:58.537Z,6.43
2022-09-26T19:00:00.169Z,5.13
2022-09-26T19:04:04.360Z,7.40
2022-09-26T19:08:06.454Z,4.90
2022-09-26T19:12:11.868Z,6.43
2022-09-26T19:16:13.401Z,5.50
2022-09-26T19:20:14.785Z,5.10
2022-09-26T19:24:34.419Z,5.87
2022-09-26T19:28:35.809Z,5.13
2022-09-26T19:32:39.692Z,4.30
2022-09-26T19:36:41.151Z,4.23
2022-09-26T19:40:47.744Z,4.70
2022-09-26T19:44:45.620Z,7.67
2022-09-26T19:48:46.939Z,4.10
2022-09-26T19:52:50.900Z,6.63
2022-09-26T19:56:52.617Z,10.33
2022-09-26T20:00:57.036Z,4.07
2022-09-26T20:04:58.416Z,3.53
2022-09-26T20:09:01.931Z,4.50
2022-09-26T20:13:03.282Z,4.70
2022-09-26T20:17:14.448Z,3.73
2022-09-26T20:21:18.284Z,5.20
2022-09-26T20:25:27.071Z,4.50
2022-09-26T20:29:28.420Z,4.60
2022-09-26T20:33:29.614Z,3.90
2022-09-26T20:37:35.116Z,3.17
2022-09-26T20:41:39.188Z,5.10
2022-09-26T20:45:43.351Z,5.43
2022-09-26T20:49:51.294Z,4.83
2022-09-26T20:53:52.488Z,4.77
2022-09-26T20:57:53.662Z,4.60
2022-09-26T21:01:56.315Z,4.90
2022-09-26T21:05:57.416Z,3.70
2022-09-26T21:09:58.611Z,3.50
2022-09-26T21:13:59.783Z,4.47
2022-09-26T21:18:01.485Z,4.20
2022-09-26T21:22:03.067Z,3.80
2022-09-26T21:26:04.301Z,3.43
2022-09-26T21:30:06.119Z,4.00
2022-09-26T21:34:11.097Z,3.57
2022-09-26T21:38:12.717Z,5.30
2022-09-26T21:42:13.981Z,4.60
2022-09-26T21:46:16.595Z,6.53
2022-09-26T21:50:19.441Z,4.50
2022-09-26T21:54:24.411Z,3.70
2022-09-26T21:58:29.397Z,5.90
2022-09-26T22:02:30.612Z,4.03
2022-09-26T22:06:32.753Z,3.40
2022-09-26T22:10:36.136Z,4.10
2022-09-26T22:14:37.305Z,3.77
2022-09-26T22:18:39.786Z,3.40
2022-09-26T22:22:41.268Z,3.10
2022-09-26T22:26:42.428Z,3.87
2022-09-26T22:30:43.597Z,4.67
2022-09-26T22:34:44.787Z,3.80
2022-09-26T22:38:47.017Z,4.80
2022-09-26T22:42:50.055Z,3.53
2022-09-26T22:46:51.249Z,3.40
2022-09-26T22:50:53.905Z,5.50
2022-09-26T22:54:55.106Z,3.77
2022-09-26T22:58:56.267Z,3.90
2022-09-26T23:02:57.491Z,3.97
2022-09-26T23:06:58.654Z,4.00
2022-09-26T23:11:01.368Z,3.90
2022-09-26T23:15:03.463Z,5.00
2022-09-26T23:19:04.641Z,5.80
2022-09-26T23:23:06.855Z,6.40
2022-09-26T23:27:08.535Z,3.97
2022-09-26T23:31:10.540Z,3.73
2022-09-26T23:35:11.763Z,3.40
2022-09-26T23:39:12.953Z,3.10
2022-09-26T23:43:14.197Z,3.70
2022-09-26T23:47:15.426Z,7.93
2022-09-26T23:51:16.722Z,3.40
2022-09-26T23:55:17.918Z,3.80
2022-09-26T23:59:19.089Z,4.07
